KPMH/PMH METAR and TAF weather

Enter ICAO airport designator
Station Type Date Time Source
KPMH METAR 2019/04/20 18:15 UTC NOAA

KPMH 201815Z AUTO 24004KT 10SM BKN037 OVC044 14/06 A2962 RMK AO2 T01360056


Station Type Date Time Source
KPMH Decoded METAR 2019/04/20 18:15 UTC NOAA

Station name not available
Apr 20, 2019 - 02:15 PM EDT / 2019.04.20 1815 UTC
Wind: from the WSW (240 degrees) at 5 MPH (4 KT):0
Visibility: 10 mile(s):0
Sky conditions: overcast
Temperature: 56.5 F (13.6 C)
Dew Point: 42.1 F (5.6 C)
Relative Humidity: 58%
Pressure (altimeter): 29.62 in. Hg (1003 hPa)
ob: KPMH 201815Z AUTO 24004KT 10SM BKN037 OVC044 14/06 A2962 RMK AO2 T01360056
cycle: 18

Station Type Date Time Source
KPMH TAF UTC NOAA

Error!

Example: see airport list